Time;durP1;ratioP1;P1;durP2;ratioP2;P2;SDS_P1;SDS_P2;PMS_P1;PMS_P2;Temp;Humidity;BMP_temperature;BMP_pressure;BME280_temperature;BME280_humidity;BME280_pressure;Samples;Min_cycle;Max_cycle;Signal;HPM_P1;HPM_P2
2022/09/06 00:00:34;;;;;;;3.90;0.90;;;;;;;19.95;78.55;101121.78;5010788;28;20524;-65
2022/09/06 00:03:00;;;;;;;2.33;0.60;;;;;;;19.85;79.47;101119.47;5026833;28;20038;-65
2022/09/06 00:05:27;;;;;;;3.42;0.50;;;;;;;19.75;80.16;101119.00;5028844;28;20116;-67
2022/09/06 00:07:53;;;;;;;2.60;0.50;;;;;;;19.68;80.74;101118.09;5029089;28;20040;-68
2022/09/06 00:10:18;;;;;;;2.75;0.50;;;;;;;19.64;80.37;101119.47;5028581;28;20108;-65
2022/09/06 00:12:44;;;;;;;1.38;0.55;;;;;;;19.64;80.31;101109.72;5028182;28;20120;-66
2022/09/06 00:15:10;;;;;;;1.35;0.50;;;;;;;19.63;80.65;101113.38;5028529;28;20033;-67
2022/09/06 00:17:36;;;;;;;1.25;0.60;;;;;;;19.61;80.60;101104.81;5027873;28;20017;-67
2022/09/06 00:20:03;;;;;;;1.98;0.50;;;;;;;19.61;80.64;101098.72;5029109;28;20029;-68
2022/09/06 00:22:28;;;;;;;1.02;0.52;;;;;;;19.57;80.59;101103.56;5027648;28;20025;-67
2022/09/06 00:24:54;;;;;;;3.15;0.50;;;;;;;19.63;80.43;101105.44;5026671;28;20033;-66
2022/09/06 00:27:20;;;;;;;0.95;0.50;;;;;;;19.64;79.95;101093.06;5028692;28;20025;-67
2022/09/06 00:29:45;;;;;;;1.20;0.40;;;;;;;19.68;79.61;101091.66;5028357;28;20041;-66
2022/09/06 00:32:11;;;;;;;1.10;0.50;;;;;;;19.76;79.17;101092.38;5027830;28;20473;-65
2022/09/06 00:34:36;;;;;;;2.17;0.50;;;;;;;19.77;78.54;101091.34;5028652;28;20619;-66
2022/09/06 00:37:02;;;;;;;1.73;0.50;;;;;;;19.72;79.14;101095.56;5028443;28;20053;-64
2022/09/06 00:39:27;;;;;;;3.25;0.63;;;;;;;19.50;79.97;101092.06;5028314;28;20040;-65
2022/09/06 00:41:53;;;;;;;2.58;0.85;;;;;;;19.39;80.91;101095.19;5028489;28;20045;-67
2022/09/06 00:44:18;;;;;;;4.88;0.68;;;;;;;19.27;82.17;101086.94;5027064;28;20081;-65
2022/09/06 00:46:46;;;;;;;1.30;0.68;;;;;;;19.19;82.70;101081.78;5028519;28;20022;-67
2022/09/06 00:49:24;;;;;;;3.78;0.60;;;;;;;19.08;82.12;101082.25;5027271;28;20033;-65
2022/09/06 00:52:06;;;;;;;6.05;0.82;;;;;;;19.12;82.33;101084.34;5028652;28;20032;-67
2022/09/06 00:54:32;;;;;;;1.70;0.70;;;;;;;19.12;81.76;101084.34;5026564;28;20120;-67
2022/09/06 00:56:59;;;;;;;2.03;0.68;;;;;;;19.16;81.72;101087.44;5028098;28;20557;-66
2022/09/06 00:59:27;;;;;;;1.08;0.50;;;;;;;19.21;81.21;101079.75;5028103;28;20087;-67
2022/09/06 01:01:53;;;;;;;2.10;0.40;;;;;;;19.28;80.79;101088.59;5028239;28;20029;-65
2022/09/06 01:04:19;;;;;;;3.05;0.65;;;;;;;19.39;80.23;101081.97;5026210;28;20327;-66
2022/09/06 01:07:02;;;;;;;4.35;0.82;;;;;;;19.48;80.35;101081.66;5028400;28;20026;-64
2022/09/06 01:09:47;;;;;;;1.67;0.40;;;;;;;19.49;79.75;101083.31;5028067;28;20040;-66
2022/09/06 01:12:24;;;;;;;3.97;0.50;;;;;;;19.54;79.65;101088.06;5027844;28;20117;-64
2022/09/06 01:15:01;;;;;;;0.88;0.50;;;;;;;19.51;79.78;101080.50;5026855;28;20037;-65
2022/09/06 01:17:36;;;;;;;1.63;0.40;;;;;;;19.41;80.61;101077.31;5028342;28;20025;-66
2022/09/06 01:23:49;;;;;;;1.50;0.47;;;;;;;19.28;81.57;101083.31;5028284;28;20609;-66
2022/09/06 01:26:46;;;;;;;2.13;0.40;;;;;;;19.32;81.24;101079.28;5007488;28;20042;-66
2022/09/06 01:29:42;;;;;;;0.80;0.50;;;;;;;19.31;81.08;101077.66;5008019;28;20022;-68
2022/09/06 01:32:31;;;;;;;6.78;0.60;;;;;;;19.25;81.60;101083.69;4985207;28;20069;-64
2022/09/06 01:35:12;;;;;;;1.45;0.43;;;;;;;19.26;81.59;101082.66;5013388;28;20041;-64
2022/09/06 01:37:38;;;;;;;1.80;1.00;;;;;;;19.28;81.22;101085.94;5027704;28;20030;-64
2022/09/06 01:40:03;;;;;;;2.85;0.40;;;;;;;19.27;81.40;101081.66;5027616;28;20338;-66
2022/09/06 01:42:32;;;;;;;6.28;0.60;;;;;;;19.23;81.32;101088.31;5027177;28;20127;-65
2022/09/06 01:45:14;;;;;;;2.30;0.40;;;;;;;19.18;81.96;101083.59;5026477;28;20021;-65
2022/09/06 01:48:04;;;;;;;0.70;0.50;;;;;;;19.11;82.84;101089.81;5028167;28;20125;-65
2022/09/06 01:50:29;;;;;;;0.98;0.57;;;;;;;19.09;82.10;101081.25;5026614;28;20464;-67
2022/09/06 01:53:10;;;;;;;4.70;0.80;;;;;;;19.02;83.13;101078.50;5027559;28;20065;-66
2022/09/06 01:55:59;;;;;;;4.28;0.50;;;;;;;19.02;82.86;101078.50;5026614;28;20038;-65
2022/09/06 01:58:49;;;;;;;1.83;0.40;;;;;;;19.00;83.06;101079.72;5027489;28;20033;-64
2022/09/06 02:01:48;;;;;;;2.28;0.50;;;;;;;19.00;83.29;101074.44;5027397;28;20060;-66
2022/09/06 02:04:28;;;;;;;2.17;0.50;;;;;;;19.02;83.20;101067.94;5026183;28;20391;-67
2022/09/06 02:07:01;;;;;;;0.85;0.55;;;;;;;19.03;82.70;101064.31;5028173;28;20033;-65
2022/09/06 02:09:30;;;;;;;1.50;0.70;;;;;;;19.02;82.21;101067.13;5030758;28;20119;-64
2022/09/06 02:12:01;;;;;;;1.90;0.50;;;;;;;19.02;82.67;101065.31;5013653;28;20033;-64
2022/09/06 02:14:35;;;;;;;3.97;0.50;;;;;;;18.98;82.83;101073.78;5029579;28;20025;-67
2022/09/06 02:17:02;;;;;;;3.10;0.73;;;;;;;18.93;83.41;101069.06;5031077;28;20029;-67
2022/09/06 02:19:37;;;;;;;3.15;0.70;;;;;;;18.85;83.95;101067.38;5029896;28;20394;-66
2022/09/06 02:22:09;;;;;;;2.35;0.63;;;;;;;18.87;83.89;101062.72;5030604;28;20038;-66
2022/09/06 02:24:37;;;;;;;6.32;0.47;;;;;;;18.89;83.75;101062.53;5030504;28;20075;-68
2022/09/06 02:27:03;;;;;;;1.52;0.60;;;;;;;18.87;83.69;101062.72;5011965;28;20029;-66
2022/09/06 02:29:29;;;;;;;4.85;0.47;;;;;;;18.87;83.83;101057.44;5030661;28;20452;-67
2022/09/06 02:32:07;;;;;;;1.63;0.50;;;;;;;18.87;83.74;101053.97;5030572;28;20033;-64
2022/09/06 02:34:37;;;;;;;4.60;0.65;;;;;;;18.87;83.19;101051.34;5029597;28;20501;-64
2022/09/06 02:37:03;;;;;;;2.22;0.50;;;;;;;18.86;83.17;101049.69;5030758;28;20037;-68
2022/09/06 02:39:29;;;;;;;2.05;0.57;;;;;;;18.82;83.65;101043.97;5030405;28;20022;-64
2022/09/06 02:41:55;;;;;;;1.92;0.40;;;;;;;18.87;83.29;101046.06;5295625;22;20828;-67
2022/09/06 02:44:20;;;;;;;0.90;0.50;;;;;;;18.94;82.57;101040.84;5010263;28;20060;-65
2022/09/06 02:46:46;;;;;;;3.88;0.50;;;;;;;18.99;81.95;101035.81;5010449;28;20037;-65
2022/09/06 02:49:11;;;;;;;1.33;0.43;;;;;;;19.00;81.83;101037.44;5010590;28;20022;-67
2022/09/06 02:51:38;;;;;;;2.65;0.70;;;;;;;18.90;82.20;101033.28;5010603;28;20030;-66
2022/09/06 02:54:04;;;;;;;2.38;0.70;;;;;;;18.75;83.10;101035.16;5010539;28;20037;-67
2022/09/06 02:56:30;;;;;;;0.77;0.50;;;;;;;18.61;84.00;101027.22;5010565;28;20034;-67
2022/09/06 02:58:55;;;;;;;2.15;0.60;;;;;;;18.52;84.87;101034.38;5010131;28;20056;-67
2022/09/06 03:01:21;;;;;;;3.28;0.60;;;;;;;18.41;85.37;101040.97;5010499;28;20525;-64
2022/09/06 03:03:46;;;;;;;3.97;0.50;;;;;;;18.46;84.80;101045.66;5010202;28;20489;-66
2022/09/06 03:06:12;;;;;;;0.70;0.50;;;;;;;18.53;84.49;101042.13;5010225;28;20029;-65
2022/09/06 03:08:37;;;;;;;2.92;0.70;;;;;;;18.57;84.78;101048.69;5010391;28;20022;-64
2022/09/06 03:11:03;;;;;;;1.77;0.73;;;;;;;18.62;85.14;101050.81;5009986;28;20548;-66
2022/09/06 03:13:29;;;;;;;2.72;0.50;;;;;;;18.59;85.18;101053.78;5009998;28;20029;-66
2022/09/06 03:15:56;;;;;;;3.15;0.68;;;;;;;18.58;85.62;101065.31;5010358;28;20444;-64
2022/09/06 03:18:23;;;;;;;2.08;0.50;;;;;;;18.53;85.88;101071.16;5009718;28;20034;-67
2022/09/06 03:20:53;;;;;;;3.17;0.60;;;;;;;18.52;85.92;101066.06;5009933;28;20117;-65
2022/09/06 03:23:20;;;;;;;1.15;0.60;;;;;;;18.49;85.96;101067.22;5009766;28;20068;-67
2022/09/06 03:25:46;;;;;;;1.40;0.80;;;;;;;18.44;86.14;101063.50;5009975;28;20032;-65
2022/09/06 03:28:12;;;;;;;2.00;0.50;;;;;;;18.48;86.28;101054.22;5009617;28;20026;-65
2022/09/06 03:30:38;;;;;;;1.00;0.50;;;;;;;18.50;86.18;101062.78;5009572;28;20417;-67
2022/09/06 03:33:04;;;;;;;2.45;0.75;;;;;;;18.49;86.22;101051.41;4992010;28;20046;-67
2022/09/06 03:35:30;;;;;;;3.10;1.15;;;;;;;18.50;86.20;101052.22;5009640;28;20068;-65
2022/09/06 03:37:55;;;;;;;3.83;0.70;;;;;;;18.52;86.09;101052.84;5009787;28;20030;-67
2022/09/06 03:40:21;;;;;;;0.85;0.50;;;;;;;18.60;85.05;101044.88;5009548;28;20096;-66
2022/09/06 03:42:46;;;;;;;1.13;0.50;;;;;;;18.66;84.25;101043.34;5009185;28;20049;-66
2022/09/06 03:45:12;;;;;;;1.60;0.40;;;;;;;18.76;83.64;101044.69;5009197;28;20025;-67
2022/09/06 03:47:38;;;;;;;1.67;0.60;;;;;;;18.82;83.08;101043.97;4991517;28;20041;-66
2022/09/06 03:50:05;;;;;;;3.70;0.43;;;;;;;18.88;82.69;101050.34;5009473;28;20212;-65
2022/09/06 03:52:30;;;;;;;2.20;0.50;;;;;;;18.92;82.41;101050.75;5009171;28;20021;-67
2022/09/06 03:54:56;;;;;;;3.05;0.85;;;;;;;18.89;82.71;101047.50;4991501;28;20390;-66
2022/09/06 03:57:22;;;;;;;2.35;0.77;;;;;;;18.83;83.18;101053.53;5008973;28;20362;-68
2022/09/06 03:59:47;;;;;;;1.77;0.50;;;;;;;18.76;83.74;101046.53;5009474;28;20026;-64
2022/09/06 04:02:13;;;;;;;2.08;0.88;;;;;;;18.68;84.32;101047.44;5009030;28;20041;-66
2022/09/06 04:04:38;;;;;;;2.38;0.60;;;;;;;18.64;84.83;101050.63;5009279;28;20077;-67
2022/09/06 04:07:04;;;;;;;6.00;0.80;;;;;;;18.62;84.87;101061.34;5009364;28;20059;-65
2022/09/06 04:09:29;;;;;;;2.13;0.60;;;;;;;18.55;85.51;101048.03;5008880;28;20026;-63
2022/09/06 04:11:55;;;;;;;2.85;0.70;;;;;;;18.50;86.00;101052.22;5008773;28;20045;-67
2022/09/06 04:14:20;;;;;;;4.30;0.73;;;;;;;18.41;86.95;101056.78;5008820;28;20508;-66
2022/09/06 04:16:46;;;;;;;1.45;0.70;;;;;;;18.36;86.79;101047.78;5009124;28;20028;-67
2022/09/06 04:19:11;;;;;;;2.67;0.70;;;;;;;18.38;86.90;101045.78;5009383;28;20029;-67
2022/09/06 04:21:37;;;;;;;4.35;0.70;;;;;;;18.36;87.07;101055.69;4991056;28;20425;-65
2022/09/06 04:24:03;;;;;;;4.35;0.60;;;;;;;18.37;86.59;101052.88;4990938;28;20033;-65
2022/09/06 04:26:28;;;;;;;2.53;0.63;;;;;;;18.37;86.45;101052.88;5008930;28;20080;-67
2022/09/06 04:28:54;;;;;;;3.40;0.90;;;;;;;18.38;86.62;101048.41;5007841;28;20057;-64
2022/09/06 04:31:19;;;;;;;2.67;0.60;;;;;;;18.30;87.21;101046.69;5008399;28;20102;-66
2022/09/06 04:33:45;;;;;;;5.85;0.63;;;;;;;18.23;88.16;101053.69;5008794;28;20034;-63
2022/09/06 04:36:11;;;;;;;1.15;0.55;;;;;;;18.20;88.43;101052.22;5008640;28;20045;-65
2022/09/06 04:38:39;;;;;;;3.83;0.70;;;;;;;18.17;88.83;101052.56;5008577;28;20026;-65
2022/09/06 04:41:05;;;;;;;2.30;0.63;;;;;;;18.15;88.51;101046.66;5008546;28;20026;-67
2022/09/06 04:43:31;;;;;;;2.95;0.80;;;;;;;18.17;88.96;101044.66;5008241;28;20073;-66
2022/09/06 04:46:10;;;;;;;3.08;0.80;;;;;;;18.15;89.11;101054.56;5008567;28;20022;-66
2022/09/06 04:48:35;;;;;;;3.30;0.63;;;;;;;18.17;88.52;101042.03;5008513;28;20053;-66
2022/09/06 04:51:01;;;;;;;5.57;0.80;;;;;;;18.16;88.70;101050.13;5008175;28;20477;-68
2022/09/06 04:53:26;;;;;;;3.63;0.70;;;;;;;18.16;88.62;101050.94;5008192;28;20029;-66
2022/09/06 04:55:52;;;;;;;2.03;0.73;;;;;;;18.14;88.53;101049.47;5008528;28;20578;-65
2022/09/06 04:58:17;;;;;;;1.92;0.98;;;;;;;18.16;88.60;101040.38;5008503;28;20120;-67
2022/09/06 05:00:43;;;;;;;3.40;0.80;;;;;;;18.18;88.54;101043.66;5008079;28;20117;-67
2022/09/06 05:03:09;;;;;;;4.88;1.10;;;;;;;18.15;89.00;101035.28;5008269;28;20040;-68
2022/09/06 05:05:34;;;;;;;3.55;1.00;;;;;;;18.16;88.57;101029.84;4990107;28;20033;-64
2022/09/06 05:08:00;;;;;;;3.20;0.80;;;;;;;18.26;88.29;101034.03;5007799;28;20399;-68
2022/09/06 05:10:26;;;;;;;4.32;0.63;;;;;;;18.31;87.77;101036.94;5007880;28;20073;-65
2022/09/06 05:12:53;;;;;;;2.55;0.80;;;;;;;18.39;87.12;101027.13;4989781;28;20038;-67
2022/09/06 05:15:20;;;;;;;5.00;0.75;;;;;;;18.43;86.89;101043.41;5007687;28;20092;-64
2022/09/06 05:17:45;;;;;;;1.38;0.82;;;;;;;18.36;87.16;101045.16;5007839;28;20591;-63
2022/09/06 05:20:12;;;;;;;6.00;1.52;;;;;;;18.29;87.71;101049.50;5007976;28;20140;-66
2022/09/06 05:22:39;;;;;;;5.03;1.55;;;;;;;18.16;88.38;101045.66;5007795;28;20033;-65
2022/09/06 05:25:05;;;;;;;3.08;1.35;;;;;;;18.15;89.09;101045.84;4990315;28;20034;-66
2022/09/06 05:27:31;;;;;;;1.67;1.00;;;;;;;18.17;88.74;101038.56;5007953;28;20026;-66
2022/09/06 05:29:56;;;;;;;6.07;0.80;;;;;;;18.28;88.15;101042.59;5007969;28;20112;-65
2022/09/06 05:32:22;;;;;;;3.05;1.20;;;;;;;18.38;87.77;101048.41;5008109;28;20373;-66
2022/09/06 05:34:47;;;;;;;1.80;0.90;;;;;;;18.48;87.48;101046.31;5007587;28;20196;-66
2022/09/06 05:37:13;;;;;;;1.67;0.60;;;;;;;18.56;87.39;101046.22;5007431;28;20041;-66
2022/09/06 05:39:38;;;;;;;2.28;1.10;;;;;;;18.58;87.43;101041.56;5007823;28;20092;-65
2022/09/06 05:42:07;;;;;;;4.45;1.15;;;;;;;18.60;87.77;101052.81;5011475;28;20046;-65
2022/09/06 05:44:34;;;;;;;5.13;0.98;;;;;;;18.57;87.95;101051.31;5011684;28;20025;-67
2022/09/06 05:47:00;;;;;;;1.30;0.77;;;;;;;18.56;88.18;101041.75;5012132;28;20047;-65
2022/09/06 05:49:25;;;;;;;3.85;0.70;;;;;;;18.60;88.04;101049.31;5011741;28;20418;-68
2022/09/06 05:51:51;;;;;;;6.22;1.33;;;;;;;18.62;88.11;101053.44;5011497;28;20038;-68
2022/09/06 05:54:16;;;;;;;2.67;0.77;;;;;;;18.62;88.41;101055.25;5011529;28;20038;-67
2022/09/06 05:56:42;;;;;;;2.03;1.02;;;;;;;18.67;87.93;101052.91;5011550;28;20061;-68
2022/09/06 05:59:07;;;;;;;4.22;0.70;;;;;;;18.74;87.80;101054.63;5011397;28;20034;-67
2022/09/06 06:01:33;;;;;;;4.30;0.98;;;;;;;18.84;87.24;101052.53;5011312;28;20032;-66
2022/09/06 06:04:03;;;;;;;4.78;0.90;;;;;;;18.96;86.72;101054.66;5011849;28;20403;-66
2022/09/06 06:06:33;;;;;;;4.93;1.08;;;;;;;19.03;86.45;101050.28;5011289;28;20130;-68
2022/09/06 06:09:00;;;;;;;1.65;1.10;;;;;;;19.10;86.16;101053.81;5011546;28;20049;-70
2022/09/06 06:11:27;;;;;;;1.45;0.65;;;;;;;19.22;85.45;101047.88;5009616;28;20092;-70
2022/09/06 06:13:52;;;;;;;2.10;1.10;;;;;;;19.30;85.62;101036.38;5010982;28;20030;-70
2022/09/06 06:16:21;;;;;;;3.80;1.17;;;;;;;19.34;85.56;101039.47;5011267;28;20026;-68
2022/09/06 06:18:47;;;;;;;3.03;1.02;;;;;;;19.39;85.01;101032.59;5010909;28;20365;-68
2022/09/06 06:21:21;;;;;;;1.80;0.68;;;;;;;19.48;84.06;101028.81;5008653;28;20026;-69
2022/09/06 06:23:54;;;;;;;1.08;0.85;;;;;;;19.60;84.04;101036.28;5007515;28;20112;-70
2022/09/06 06:26:22;;;;;;;4.40;0.88;;;;;;;19.66;83.07;101027.59;4991583;28;20026;-68
2022/09/06 06:28:48;;;;;;;4.57;0.75;;;;;;;19.74;83.30;101046.78;4991296;28;20030;-68
2022/09/06 06:31:13;;;;;;;4.13;0.80;;;;;;;19.81;83.36;101041.56;4991368;28;20559;-67
2022/09/06 06:33:40;;;;;;;1.10;0.60;;;;;;;19.89;82.58;101044.03;4991202;28;20432;-68
2022/09/06 06:36:12;;;;;;;4.88;0.85;;;;;;;20.04;82.30;101042.13;5006207;28;20026;-68
2022/09/06 06:38:38;;;;;;;2.45;0.80;;;;;;;20.10;82.04;101046.66;4991651;28;20080;-66
2022/09/06 06:41:05;;;;;;;1.88;0.70;;;;;;;20.15;81.94;101046.09;5007133;28;20048;-67
2022/09/06 06:43:35;;;;;;;4.07;0.70;;;;;;;20.21;82.09;101048.78;5007598;28;20065;-68
2022/09/06 06:46:05;;;;;;;5.38;1.08;;;;;;;20.25;82.29;101048.38;4990681;28;20431;-67
2022/09/06 06:48:30;;;;;;;3.33;1.23;;;;;;;20.31;82.06;101050.25;4992870;28;20034;-67
2022/09/06 06:50:56;;;;;;;4.43;1.10;;;;;;;20.34;82.45;101048.03;4992926;28;20037;-70
2022/09/06 06:53:22;;;;;;;3.35;0.70;;;;;;;20.37;82.56;101046.81;5009788;28;20832;-71
2022/09/06 06:55:47;;;;;;;8.32;1.45;;;;;;;20.45;81.92;101052.00;5010276;28;20029;-70
2022/09/06 06:58:15;;;;;;;8.90;1.33;;;;;;;20.54;82.37;101058.75;4992336;28;20100;-71
2022/09/06 07:00:41;;;;;;;6.22;1.02;;;;;;;20.68;81.56;101052.53;5009933;28;20057;-71
2022/09/06 07:03:07;;;;;;;3.60;1.15;;;;;;;20.79;80.98;101051.97;4992417;28;20026;-69
2022/09/06 07:05:33;;;;;;;6.75;0.93;;;;;;;20.92;80.90;101053.03;5009963;28;20386;-71
2022/09/06 07:07:59;;;;;;;3.28;1.08;;;;;;;21.06;80.40;101052.06;5010066;28;20030;-71
2022/09/06 07:10:24;;;;;;;2.80;0.80;;;;;;;21.13;78.96;101058.22;5009945;28;20034;-71
2022/09/06 07:12:50;;;;;;;3.65;0.65;;;;;;;21.16;78.92;101047.22;5010089;28;20158;-68
2022/09/06 07:15:16;;;;;;;4.95;0.90;;;;;;;21.31;79.41;101047.06;5009663;28;20029;-68
2022/09/06 07:17:42;;;;;;;2.70;0.85;;;;;;;21.50;78.02;101047.09;5009795;28;20030;-69
2022/09/06 07:20:09;;;;;;;2.75;1.00;;;;;;;21.71;77.55;101047.94;4992157;28;20037;-68
2022/09/06 07:22:35;;;;;;;1.08;0.65;;;;;;;21.81;77.05;101050.97;5007303;28;20464;-68
2022/09/06 07:25:01;;;;;;;2.28;0.70;;;;;;;21.91;76.58;101051.41;5009498;28;20336;-69
2022/09/06 07:27:27;;;;;;;5.35;0.68;;;;;;;22.04;76.80;101050.63;5007795;28;20442;-68
2022/09/06 07:29:53;;;;;;;2.83;0.95;;;;;;;22.10;75.86;101050.59;4991029;28;20041;-68
2022/09/06 07:32:18;;;;;;;1.35;0.60;;;;;;;22.22;76.01;101055.25;5009584;28;20085;-68
2022/09/06 07:34:44;;;;;;;5.10;0.65;;;;;;;22.34;75.81;101054.44;5008909;28;20032;-69
2022/09/06 07:37:09;;;;;;;6.72;0.60;;;;;;;22.41;74.80;101046.47;4990102;28;20030;-67
2022/09/06 07:39:35;;;;;;;3.90;0.80;;;;;;;22.40;75.11;101050.94;5005818;28;20037;-68
2022/09/06 07:42:02;;;;;;;3.50;0.73;;;;;;;22.46;74.53;101059.94;4987761;28;20568;-69
2022/09/06 07:44:28;;;;;;;2.65;0.80;;;;;;;22.49;74.14;101062.16;5005920;28;20141;-69
2022/09/06 07:46:54;;;;;;;2.13;0.57;;;;;;;22.58;74.23;101068.06;4989981;28;20030;-68
2022/09/06 07:49:19;;;;;;;6.57;0.68;;;;;;;22.66;73.92;101070.50;5007940;28;20034;-67
2022/09/06 07:51:46;;;;;;;6.05;1.27;;;;;;;22.65;73.71;101064.38;4990308;28;20466;-69
2022/09/06 07:54:12;;;;;;;2.78;0.90;;;;;;;22.64;74.31;101057.44;5009195;28;20386;-69
2022/09/06 07:56:37;;;;;;;4.88;0.65;;;;;;;22.88;72.86;101063.09;5008571;28;20030;-67
2022/09/06 07:59:02;;;;;;;2.47;0.80;;;;;;;23.09;72.26;101062.78;4991110;28;20025;-68
2022/09/06 08:01:33;;;;;;;11.07;0.80;;;;;;;23.14;72.22;101055.00;5009452;28;20090;-68
2022/09/06 08:04:00;;;;;;;2.55;0.60;;;;;;;23.18;71.07;101053.53;5007946;28;20448;-68
2022/09/06 08:06:28;;;;;;;2.58;0.85;;;;;;;23.36;70.23;101061.59;5009010;28;20065;-68
2022/09/06 08:08:54;;;;;;;3.88;0.60;;;;;;;23.46;70.60;101055.81;5008285;28;20030;-68
2022/09/06 08:11:20;;;;;;;6.68;0.80;;;;;;;23.54;70.53;101057.44;5009436;28;20084;-68
2022/09/06 08:13:50;;;;;;;11.45;0.90;;;;;;;23.65;70.22;101060.19;5006655;28;20069;-68
2022/09/06 08:16:16;;;;;;;5.55;0.77;;;;;;;23.72;69.76;101052.97;4991021;28;20061;-68
2022/09/06 08:18:42;;;;;;;3.38;0.60;;;;;;;23.85;69.70;101057.38;5007119;28;20445;-68
2022/09/06 08:21:11;;;;;;;1.10;0.57;;;;;;;24.09;69.93;101050.44;4988794;28;20061;-68
2022/09/06 08:23:38;;;;;;;5.65;0.70;;;;;;;24.16;69.40;101054.63;4985468;28;20026;-68
2022/09/06 08:26:03;;;;;;;3.42;0.80;;;;;;;24.20;69.46;101055.00;5008394;28;20132;-68
2022/09/06 08:28:29;;;;;;;6.65;0.60;;;;;;;24.33;68.31;101056.78;5008701;28;20097;-68
2022/09/06 08:31:03;;;;;;;2.35;0.60;;;;;;;24.30;68.20;101057.22;4991171;28;20037;-67
2022/09/06 08:33:29;;;;;;;9.93;1.43;;;;;;;24.22;68.20;101055.63;5007099;28;20026;-67
2022/09/06 08:35:58;;;;;;;4.82;1.17;;;;;;;24.24;68.07;101055.38;5007593;28;20072;-68
2022/09/06 08:38:24;;;;;;;2.78;0.40;;;;;;;24.28;68.16;101045.97;4990729;28;20418;-68
2022/09/06 08:40:52;;;;;;;5.35;0.40;;;;;;;24.36;67.71;101046.50;4996997;28;20433;-68
2022/09/06 08:43:20;;;;;;;4.15;0.47;;;;;;;24.50;66.93;101043.69;5000696;28;20074;-68
2022/09/06 08:45:54;;;;;;;2.55;0.47;;;;;;;24.63;65.62;101041.66;4997083;28;20113;-67
2022/09/06 08:48:21;;;;;;;4.43;0.60;;;;;;;24.66;66.09;101046.56;4988924;28;20034;-68
2022/09/06 08:51:10;;;;;;;4.45;0.75;;;;;;;24.68;66.86;101044.47;4988785;28;20022;-68
2022/09/06 08:53:41;;;;;;;1.95;0.47;;;;;;;24.70;67.16;101050.41;5000506;28;20132;-67
2022/09/06 08:56:53;;;;;;;2.30;0.50;;;;;;;24.77;66.99;101055.66;5008377;28;20037;-68
2022/09/06 08:59:19;;;;;;;3.08;0.52;;;;;;;24.80;67.96;101050.69;4988334;28;20054;-68
2022/09/06 09:01:44;;;;;;;1.42;0.43;;;;;;;24.79;67.92;101051.72;4989513;28;20022;-68
2022/09/06 09:04:15;;;;;;;3.20;0.60;;;;;;;24.86;67.29;101056.16;5005227;28;20115;-68
2022/09/06 09:06:43;;;;;;;3.13;0.50;;;;;;;24.87;67.50;101052.47;4993959;28;20022;-67
2022/09/06 09:09:13;;;;;;;4.47;0.40;;;;;;;24.82;66.74;101053.13;4989888;28;20030;-67
2022/09/06 09:11:45;;;;;;;3.38;0.52;;;;;;;24.80;66.35;101056.03;4988267;28;20570;-67
2022/09/06 09:14:22;;;;;;;2.60;0.40;;;;;;;24.73;65.82;101052.63;5005091;28;20642;-68
2022/09/06 09:16:58;;;;;;;4.63;0.40;;;;;;;24.61;66.92;101051.72;5014453;28;20045;-67
2022/09/06 09:19:24;;;;;;;2.58;0.50;;;;;;;24.59;67.50;101039.66;5014675;28;20584;-68
2022/09/06 09:21:49;;;;;;;3.45;0.50;;;;;;;24.51;66.33;101040.81;5013001;28;20152;-69
2022/09/06 09:24:15;;;;;;;2.45;0.32;;;;;;;24.51;65.31;101032.81;5012704;28;20173;-67
2022/09/06 09:26:48;;;;;;;2.33;0.40;;;;;;;24.44;65.00;101032.88;5014986;28;20181;-67
2022/09/06 09:29:15;;;;;;;3.35;0.38;;;;;;;24.44;64.48;101026.75;5014575;28;20040;-68
2022/09/06 09:31:49;;;;;;;2.17;0.40;;;;;;;24.43;64.34;101027.78;4996333;28;20068;-67
2022/09/06 09:34:32;;;;;;;2.38;0.32;;;;;;;24.41;65.00;101024.53;4994255;28;20530;-67
2022/09/06 09:37:18;;;;;;;5.55;0.47;;;;;;;24.45;63.56;101023.06;4995035;28;20148;-67
2022/09/06 09:39:46;;;;;;;4.70;0.40;;;;;;;24.51;64.29;101014.16;5014385;28;20635;-67
2022/09/06 09:42:34;;;;;;;1.63;0.50;;;;;;;24.63;64.72;101015.03;5013272;28;20535;-66
2022/09/06 09:45:01;;;;;;;3.88;0.63;;;;;;;24.75;64.21;101009.75;5014427;28;20512;-67
2022/09/06 09:47:29;;;;;;;2.03;0.40;;;;;;;24.79;63.46;101005.63;5014270;28;20034;-66
2022/09/06 09:49:55;;;;;;;0.95;0.55;;;;;;;24.73;63.11;101006.50;5013978;28;20030;-67
2022/09/06 09:52:30;;;;;;;4.43;0.47;;;;;;;24.84;62.04;101003.09;5010565;28;20029;-67
2022/09/06 09:55:03;;;;;;;2.28;0.50;;;;;;;25.07;61.07;100994.38;4994837;28;20026;-68
2022/09/06 09:57:41;;;;;;;1.42;0.40;;;;;;;25.13;61.44;100998.81;4994696;28;20125;-67
2022/09/06 10:00:12;;;;;;;1.95;0.30;;;;;;;25.19;61.00;100992.56;4994552;28;20034;-67
2022/09/06 10:02:39;;;;;;;0.82;0.40;;;;;;;25.11;60.06;100998.22;4978414;28;20505;-68
2022/09/06 10:05:11;;;;;;;2.80;0.43;;;;;;;25.06;59.19;100996.22;4996248;28;20037;-67
2022/09/06 10:07:49;;;;;;;3.47;0.40;;;;;;;25.06;60.23;100988.22;5013007;28;20048;-67
2022/09/06 10:10:37;;;;;;;1.85;0.60;;;;;;;25.05;60.71;100986.59;5014002;28;20033;-67
2022/09/06 10:13:07;;;;;;;2.80;0.30;;;;;;;25.02;61.21;100991.63;5012233;28;20401;-67
2022/09/06 10:15:37;;;;;;;1.15;0.40;;;;;;;25.04;61.76;100989.53;5014170;28;20025;-68
2022/09/06 10:18:03;;;;;;;0.98;0.40;;;;;;;25.16;60.29;100987.69;5014023;28;20025;-66
2022/09/06 10:20:51;;;;;;;0.50;0.30;;;;;;;25.26;59.00;100985.28;5014381;28;20508;-68
2022/09/06 10:23:35;;;;;;;4.07;0.50;;;;;;;25.44;57.88;100993.22;5011868;28;20148;-67
2022/09/06 10:26:13;;;;;;;3.53;0.50;;;;;;;25.65;59.50;100983.84;5011308;28;20077;-68
2022/09/06 10:28:42;;;;;;;4.10;0.73;;;;;;;25.74;59.73;100981.66;5010470;28;20025;-67
2022/09/06 10:31:30;;;;;;;0.75;0.50;;;;;;;25.79;62.49;100987.13;5010624;28;20062;-68
2022/09/06 10:34:16;;;;;;;1.50;0.40;;;;;;;25.61;61.22;100984.50;5011242;28;20838;-67
2022/09/06 10:36:58;;;;;;;2.08;0.55;;;;;;;25.73;59.47;100988.84;5009681;28;20057;-67
2022/09/06 10:39:33;;;;;;;1.40;0.40;;;;;;;25.91;58.99;100990.59;5009334;28;20047;-68
2022/09/06 10:42:01;;;;;;;1.30;0.38;;;;;;;25.87;59.16;100983.28;5009415;28;20156;-68
2022/09/06 10:44:42;;;;;;;2.50;0.45;;;;;;;25.89;59.16;100987.34;5010255;28;20041;-68
2022/09/06 10:47:11;;;;;;;2.08;0.45;;;;;;;25.82;58.60;100975.97;5010927;28;20055;-68
2022/09/06 10:49:50;;;;;;;3.97;0.40;;;;;;;25.94;57.51;100976.78;5007759;28;20055;-68
2022/09/06 10:52:24;;;;;;;1.60;0.45;;;;;;;25.87;57.18;100969.94;5002014;28;20097;-68
2022/09/06 10:54:52;;;;;;;2.28;0.40;;;;;;;25.78;57.88;100966.81;5005579;28;20037;-68
2022/09/06 10:57:24;;;;;;;0.60;0.30;;;;;;;25.86;57.83;100961.13;5010539;28;20040;-69
2022/09/06 11:00:01;;;;;;;1.30;0.40;;;;;;;25.87;59.29;100967.28;5009002;28;20036;-68
2022/09/06 11:02:58;;;;;;;0.88;0.50;;;;;;;25.91;56.33;100955.91;4992262;28;20034;-69
2022/09/06 11:05:29;;;;;;;2.35;0.57;;;;;;;25.97;58.31;100957.63;4992660;28;20049;-68
2022/09/06 11:08:20;;;;;;;3.55;0.50;;;;;;;26.04;58.86;100957.47;5006387;28;20176;-68
2022/09/06 11:10:48;;;;;;;1.23;0.60;;;;;;;26.06;59.16;100950.06;5007266;28;20064;-68
2022/09/06 11:13:19;;;;;;;0.60;0.40;;;;;;;25.86;59.84;100949.63;5010343;28;20041;-68
2022/09/06 11:15:52;;;;;;;2.25;0.40;;;;;;;26.00;56.69;100954.47;5008330;28;20113;-69
2022/09/06 11:18:38;;;;;;;1.58;0.40;;;;;;;26.03;57.79;100953.19;5008514;28;20038;-68
2022/09/06 11:21:15;;;;;;;;;;;;;;;25.97;57.69;100946.16;5008205;28;20136;-68
2022/09/06 11:23:47;;;;;;;3.38;0.60;;;;;;;25.94;58.60;100946.63;5005831;28;19921;-68
2022/09/06 11:26:39;;;;;;;4.45;0.50;;;;;;;25.97;58.41;100941.63;5007334;28;20155;-68
2022/09/06 11:29:21;;;;;;;2.25;0.47;;;;;;;25.95;59.38;100932.22;5006207;28;20045;-69
2022/09/06 11:31:55;;;;;;;2.72;0.50;;;;;;;26.09;58.11;100923.69;4990453;28;20595;-68
2022/09/06 11:34:25;;;;;;;1.85;0.60;;;;;;;26.09;57.72;100931.72;4990176;28;20478;-68
2022/09/06 11:36:54;;;;;;;8.65;0.85;;;;;;;26.10;58.11;100928.00;5002485;28;20502;-68
2022/09/06 11:39:30;;;;;;;2.63;0.70;;;;;;;26.19;58.70;100920.44;5009075;28;20470;-68